Uelen, Russia
Current Conditions -  °F | °C
As of 8:58 AM on Friday 19 Dec 2014 (Local Time) from PAIW Reporting Station
Light Snow Light Snow  
Wind Chill:   Ceiling: 200
Heat Index: 20°   Visibility: 0.5mi
Dew Point: 19°   Wind: 14mph
Humidity: 96%   Direction: 80°E
Pressure: 29.65"   Gusts: NA
Location:  66.16°N, 169.82°W
Report Text: PAIW 182058Z AUTO 08012KT 1/2SM -SN FZFG OVC002 M07/M07 A2965 RMK AO2 SNB55 SLP039 P0000 60000 T10671072 56001 FZRANO
Loading
Personal Weather Stations






























Interactive Weather Map New forecast layout! Learn more

10-Day Weather Forecast

Advertisements
Track Severe Weather on mobile